createdAt,value
2023-05-21T00:00:36.184Z,14.43
2023-05-21T00:03:02.964Z,14.44
2023-05-21T00:05:29.517Z,14.43
2023-05-21T00:07:56.054Z,14.35
2023-05-21T00:10:22.726Z,14.33
2023-05-21T00:12:49.291Z,14.43
2023-05-21T00:15:15.882Z,14.48
2023-05-21T00:17:43.324Z,14.26
2023-05-21T00:20:10.357Z,14.29
2023-05-21T00:22:36.914Z,14.29
2023-05-21T00:25:04.357Z,14.29
2023-05-21T00:27:30.925Z,14.35
2023-05-21T00:29:57.781Z,14.29
2023-05-21T00:32:24.409Z,14.22
2023-05-21T00:34:51.218Z,14.19
2023-05-21T00:37:17.972Z,14.19
2023-05-21T00:39:44.519Z,14.22
2023-05-21T00:42:12.325Z,14.26
2023-05-21T00:44:39.345Z,14.25
2023-05-21T00:47:06.568Z,14.28
2023-05-21T00:49:33.190Z,14.32
2023-05-21T00:52:01.630Z,14.32
2023-05-21T00:54:28.879Z,14.23
2023-05-21T00:56:56.217Z,14.21
2023-05-21T00:59:24.038Z,14.19
2023-05-21T01:01:56.018Z,14.15
2023-05-21T01:04:23.669Z,14.21
2023-05-21T01:06:50.294Z,14.18
2023-05-21T01:09:17.410Z,14.15
2023-05-21T01:11:50.104Z,14.14
2023-05-21T01:14:18.803Z,14.16
2023-05-21T01:16:49.568Z,14.19
2023-05-21T01:19:19.476Z,14.09
2023-05-21T01:21:49.565Z,14.12
2023-05-21T01:24:16.241Z,14.08
2023-05-21T01:26:44.233Z,14.05
2023-05-21T01:29:14.170Z,14.04
2023-05-21T01:31:59.504Z,13.94
2023-05-21T01:34:35.065Z,13.98
2023-05-21T01:37:11.064Z,14.01
2023-05-21T01:39:41.998Z,14.02
2023-05-21T01:42:10.853Z,14.00
2023-05-21T01:44:37.996Z,13.98
2023-05-21T01:47:05.423Z,13.91
2023-05-21T01:49:32.686Z,13.95
2023-05-21T01:51:59.294Z,13.85
2023-05-21T01:54:25.775Z,13.83
2023-05-21T01:56:52.344Z,13.75
2023-05-21T01:59:20.209Z,13.81
2023-05-21T02:01:46.819Z,13.78
2023-05-21T02:04:13.518Z,13.78
2023-05-21T02:06:40.970Z,13.75
2023-05-21T02:09:08.104Z,13.74
2023-05-21T02:11:34.867Z,13.81
2023-05-21T02:14:01.366Z,13.73
2023-05-21T02:16:27.900Z,13.68
2023-05-21T02:18:57.379Z,13.70
2023-05-21T02:21:24.257Z,13.61
2023-05-21T02:23:50.997Z,13.68
2023-05-21T02:26:17.926Z,13.75
2023-05-21T02:28:44.655Z,13.73
2023-05-21T02:31:11.622Z,13.68
2023-05-21T02:33:40.824Z,13.68
2023-05-21T02:36:12.974Z,13.73
2023-05-21T02:38:43.488Z,13.71
2023-05-21T02:41:13.348Z,13.81
2023-05-21T02:43:40.019Z,13.83
2023-05-21T02:46:07.624Z,13.81
2023-05-21T02:48:34.260Z,13.83
2023-05-21T02:51:00.779Z,13.83
2023-05-21T02:53:27.343Z,13.84
2023-05-21T02:55:53.844Z,13.71
2023-05-21T02:58:23.383Z,13.68
2023-05-21T03:00:49.933Z,13.64
2023-05-21T03:03:16.757Z,13.83
2023-05-21T03:05:43.383Z,13.93
2023-05-21T03:08:09.959Z,14.00
2023-05-21T03:10:36.468Z,13.91
2023-05-21T03:13:06.402Z,13.90
2023-05-21T03:15:34.788Z,14.00
2023-05-21T03:18:01.927Z,13.91
2023-05-21T03:20:28.929Z,13.94
2023-05-21T03:22:55.793Z,13.84
2023-05-21T03:25:25.042Z,13.77
2023-05-21T03:27:52.426Z,13.83
2023-05-21T03:30:19.076Z,13.75
2023-05-21T03:32:46.726Z,13.81
2023-05-21T03:35:13.308Z,13.87
2023-05-21T03:37:40.008Z,13.83
2023-05-21T03:40:07.670Z,13.84
2023-05-21T03:42:34.330Z,13.95
2023-05-21T03:45:01.142Z,13.90
2023-05-21T03:47:27.736Z,13.84
2023-05-21T03:49:54.376Z,13.83
2023-05-21T03:52:21.069Z,13.81
2023-05-21T03:54:47.606Z,13.78
2023-05-21T03:57:14.276Z,13.77
2023-05-21T03:59:40.842Z,13.64
2023-05-21T04:02:07.442Z,13.61
2023-05-21T04:04:34.060Z,13.64
2023-05-21T04:07:00.926Z,13.71
2023-05-21T04:09:28.135Z,13.74
2023-05-21T04:11:54.684Z,13.74
2023-05-21T04:14:22.621Z,13.83
2023-05-21T04:16:49.916Z,13.88
2023-05-21T04:19:16.670Z,13.95
2023-05-21T04:21:45.005Z,13.95
2023-05-21T04:24:11.868Z,13.88
2023-05-21T04:26:41.961Z,13.83
2023-05-21T04:29:09.974Z,13.84
2023-05-21T04:31:36.803Z,13.83
2023-05-21T04:34:03.516Z,13.83
2023-05-21T04:36:30.249Z,13.83
2023-05-21T04:38:57.089Z,13.81
2023-05-21T04:41:23.702Z,13.85
2023-05-21T04:43:55.014Z,13.81
2023-05-21T04:46:26.896Z,13.81
2023-05-21T04:48:56.732Z,13.78
2023-05-21T04:51:24.952Z,13.93
2023-05-21T04:53:51.549Z,13.93
2023-05-21T04:56:18.607Z,13.95
2023-05-21T05:01:16.039Z,14.02
2023-05-21T05:03:42.776Z,13.98
2023-05-21T05:06:09.377Z,14.09
2023-05-21T05:08:36.262Z,14.21
2023-05-21T05:11:03.094Z,14.18
2023-05-21T05:13:29.623Z,14.28
2023-05-21T05:15:57.497Z,14.32
2023-05-21T05:18:24.173Z,14.25
2023-05-21T05:20:50.793Z,14.25
2023-05-21T05:23:17.357Z,14.14
2023-05-21T05:25:43.897Z,14.05
2023-05-21T05:28:10.756Z,14.15
2023-05-21T05:30:37.455Z,14.08
2023-05-21T05:33:04.206Z,14.05
2023-05-21T05:35:31.037Z,14.18
2023-05-21T05:37:57.675Z,14.19
2023-05-21T05:40:24.248Z,14.33
2023-05-21T05:42:52.695Z,14.36
2023-05-21T05:45:19.957Z,14.33
2023-05-21T05:47:46.918Z,14.37
2023-05-21T05:50:13.540Z,14.48
2023-05-21T05:52:40.029Z,14.46
2023-05-21T05:55:08.927Z,14.52
2023-05-21T05:57:36.063Z,14.60
2023-05-21T06:00:03.552Z,14.81
2023-05-21T06:02:30.191Z,14.83
2023-05-21T06:04:56.854Z,14.83
2023-05-21T06:07:23.344Z,14.84
2023-05-21T06:09:49.959Z,15.03
2023-05-21T06:12:16.524Z,15.05
2023-05-21T06:14:45.146Z,15.12
2023-05-21T06:17:12.289Z,15.12
2023-05-21T06:19:39.714Z,15.10
2023-05-21T06:22:06.175Z,15.38
2023-05-21T06:24:32.768Z,15.42
2023-05-21T06:26:59.452Z,15.45
2023-05-21T06:32:36.113Z,15.49
2023-05-21T06:35:02.775Z,15.45
2023-05-21T06:37:29.341Z,15.49
2023-05-21T06:39:55.910Z,15.67
2023-05-21T06:42:22.568Z,15.74
2023-05-21T06:44:49.085Z,16.04
2023-05-21T06:47:15.768Z,16.21
2023-05-21T06:49:42.357Z,16.24
2023-05-21T06:52:09.063Z,16.34
2023-05-21T06:54:35.664Z,16.30
2023-05-21T06:57:02.499Z,16.27
2023-05-21T06:59:29.123Z,16.40
2023-05-21T07:01:55.691Z,16.52
2023-05-21T07:04:22.278Z,16.68
2023-05-21T07:06:48.766Z,16.73
2023-05-21T07:09:15.589Z,16.93
2023-05-21T07:11:42.178Z,17.04
2023-05-21T07:14:08.864Z,17.11
2023-05-21T07:16:35.439Z,17.16
2023-05-21T07:19:01.964Z,17.21
2023-05-21T07:21:28.467Z,17.13
2023-05-21T07:23:54.988Z,17.13
2023-05-21T07:26:21.569Z,17.07
2023-05-21T07:28:48.270Z,17.14
2023-05-21T07:31:14.948Z,16.93
2023-05-21T07:33:41.570Z,16.82
2023-05-21T07:36:08.250Z,16.80
2023-05-21T07:38:34.934Z,17.09
2023-05-21T07:41:01.634Z,17.21
2023-05-21T07:43:28.310Z,17.72
2023-05-21T07:45:54.804Z,18.16
2023-05-21T07:48:21.355Z,18.47
2023-05-21T07:50:49.703Z,18.70
2023-05-21T07:53:16.322Z,18.36
2023-05-21T07:55:47.772Z,18.27
2023-05-21T07:58:18.727Z,17.95
2023-05-21T08:00:47.371Z,17.78
2023-05-21T08:03:18.418Z,17.44
2023-05-21T08:05:48.914Z,17.83
2023-05-21T08:08:19.672Z,17.83
2023-05-21T08:10:47.735Z,17.37
2023-05-21T08:13:16.349Z,17.75
2023-05-21T08:15:43.662Z,17.65
2023-05-21T08:18:10.540Z,18.66
2023-05-21T08:20:37.476Z,18.53
2023-05-21T08:23:07.080Z,18.64
2023-05-21T08:25:33.866Z,18.08
2023-05-21T08:28:00.415Z,18.01
2023-05-21T08:30:27.349Z,18.29
2023-05-21T08:32:55.040Z,19.60
2023-05-21T08:35:21.727Z,19.56
2023-05-21T08:37:48.332Z,22.15
2023-05-21T08:40:15.068Z,20.63
2023-05-21T08:42:49.276Z,20.75
2023-05-21T08:45:20.987Z,20.93
2023-05-21T08:47:48.463Z,22.33
2023-05-21T08:50:16.873Z,22.76
2023-05-21T08:52:43.819Z,23.86
2023-05-21T08:55:10.753Z,22.60
2023-05-21T08:57:38.088Z,23.39
2023-05-21T09:00:07.402Z,23.63
2023-05-21T09:02:34.912Z,22.19
2023-05-21T09:05:03.228Z,22.70
2023-05-21T09:07:31.787Z,23.98
2023-05-21T09:10:05.218Z,22.87
2023-05-21T09:12:32.339Z,22.53
2023-05-21T09:15:00.293Z,23.07
2023-05-21T09:17:26.869Z,22.92
2023-05-21T09:20:17.523Z,24.53
2023-05-21T09:22:48.593Z,24.67
2023-05-21T09:25:17.870Z,24.34
2023-05-21T09:27:44.970Z,24.32
2023-05-21T09:30:16.298Z,23.70
2023-05-21T09:32:47.358Z,23.26
2023-05-21T09:35:15.182Z,23.26
2023-05-21T09:37:45.861Z,21.61
2023-05-21T09:40:17.600Z,22.29
2023-05-21T09:42:55.260Z,22.57
2023-05-21T09:45:26.205Z,22.03
2023-05-21T09:47:54.935Z,22.23
2023-05-21T09:50:27.927Z,23.96
2023-05-21T09:52:55.589Z,25.06
2023-05-21T09:55:23.457Z,24.93
2023-05-21T09:57:51.061Z,25.19
2023-05-21T10:00:28.617Z,26.55
2023-05-21T10:02:56.864Z,27.07
2023-05-21T10:05:28.776Z,27.23
2023-05-21T10:08:03.278Z,27.03
2023-05-21T10:10:31.982Z,27.18
2023-05-21T10:13:08.657Z,27.05
2023-05-21T10:15:45.776Z,26.67
2023-05-21T10:18:13.523Z,26.79
2023-05-21T10:20:41.202Z,27.32
2023-05-21T10:23:08.095Z,25.16
2023-05-21T10:25:35.161Z,23.84
2023-05-21T10:28:01.736Z,24.65
2023-05-21T10:30:28.843Z,25.70
2023-05-21T10:32:57.274Z,26.28
2023-05-21T10:35:24.661Z,26.59
2023-05-21T10:37:52.800Z,26.28
2023-05-21T10:40:19.383Z,27.01
2023-05-21T10:43:04.396Z,26.45
2023-05-21T10:45:59.254Z,27.03
2023-05-21T10:48:41.122Z,26.50
2023-05-21T10:51:25.731Z,23.53
2023-05-21T10:53:55.363Z,24.95
2023-05-21T10:56:25.617Z,25.39
2023-05-21T10:58:52.159Z,24.99
2023-05-21T11:01:19.455Z,25.94
2023-05-21T11:03:50.181Z,25.68
2023-05-21T11:06:25.208Z,25.34
2023-05-21T11:08:55.276Z,25.33
2023-05-21T11:11:51.487Z,25.26
2023-05-21T11:14:56.825Z,27.20
2023-05-21T11:17:44.694Z,27.23
2023-05-21T11:20:15.167Z,27.97
2023-05-21T11:22:41.865Z,27.58
2023-05-21T11:25:08.793Z,28.29
2023-05-21T11:27:40.503Z,28.16
2023-05-21T11:30:14.532Z,28.96
2023-05-21T11:33:13.703Z,28.63
2023-05-21T11:35:46.366Z,28.27
2023-05-21T11:38:13.069Z,27.57
2023-05-21T11:40:56.400Z,27.55
2023-05-21T11:43:26.579Z,27.69
2023-05-21T11:45:56.111Z,28.39
2023-05-21T11:48:27.387Z,27.90
2023-05-21T11:50:54.689Z,28.58
2023-05-21T11:53:21.325Z,27.66
2023-05-21T11:55:47.968Z,28.60
2023-05-21T11:58:16.500Z,27.85
2023-05-21T12:00:43.211Z,28.64
2023-05-21T12:03:14.143Z,29.32
2023-05-21T12:05:48.709Z,29.84
2023-05-21T12:08:27.593Z,30.15
2023-05-21T12:11:01.825Z,30.55
2023-05-21T12:13:28.910Z,30.20
2023-05-21T12:15:55.784Z,30.78
2023-05-21T12:18:22.598Z,30.21
2023-05-21T12:20:52.219Z,30.36
2023-05-21T12:23:20.619Z,30.61
2023-05-21T12:25:47.325Z,30.75
2023-05-21T12:28:14.056Z,29.46
2023-05-21T12:30:40.558Z,30.13
2023-05-21T12:33:07.208Z,30.08
2023-05-21T12:35:34.074Z,30.13
2023-05-21T12:38:02.191Z,30.66
2023-05-21T12:40:39.970Z,30.93
2023-05-21T12:43:07.086Z,31.72
2023-05-21T12:45:33.992Z,29.35
2023-05-21T12:48:03.710Z,28.31
2023-05-21T12:50:30.594Z,27.31
2023-05-21T12:52:58.377Z,27.99
2023-05-21T12:55:28.584Z,27.75
2023-05-21T12:58:14.158Z,27.01
2023-05-21T13:00:43.126Z,28.20
2023-05-21T13:03:09.784Z,29.33
2023-05-21T13:05:40.708Z,29.51
2023-05-21T13:08:07.390Z,28.94
2023-05-21T13:10:34.006Z,28.20
2023-05-21T13:13:01.675Z,28.39
2023-05-21T13:15:28.293Z,28.79
2023-05-21T13:17:56.766Z,28.21
2023-05-21T13:20:26.502Z,28.12
2023-05-21T13:22:54.216Z,27.99
2023-05-21T13:25:24.522Z,28.48
2023-05-21T13:27:52.598Z,29.56
2023-05-21T13:30:20.135Z,30.10
2023-05-21T13:32:47.530Z,30.41
2023-05-21T13:35:16.386Z,30.44
2023-05-21T13:37:43.413Z,28.91
2023-05-21T13:40:12.074Z,29.43
2023-05-21T13:42:38.905Z,29.87
2023-05-21T13:45:07.657Z,29.93
2023-05-21T13:47:36.289Z,30.13
2023-05-21T13:50:05.590Z,30.21
2023-05-21T13:52:32.162Z,30.82
2023-05-21T13:54:59.177Z,31.64
2023-05-21T13:57:30.809Z,31.81
2023-05-21T13:59:58.395Z,31.77
2023-05-21T14:02:25.561Z,32.02
2023-05-21T14:04:52.341Z,30.86
2023-05-21T14:07:18.930Z,30.49
2023-05-21T14:09:47.550Z,29.83
2023-05-21T14:12:14.170Z,29.54
2023-05-21T14:14:40.791Z,29.86
2023-05-21T14:17:07.501Z,29.90
2023-05-21T14:19:34.202Z,30.07
2023-05-21T14:22:00.887Z,30.27
2023-05-21T14:24:27.503Z,30.02
2023-05-21T14:26:54.058Z,29.95
2023-05-21T14:29:20.769Z,31.03
2023-05-21T14:31:47.429Z,31.67
2023-05-21T14:34:14.076Z,30.23
2023-05-21T14:36:41.021Z,30.17
2023-05-21T14:39:07.651Z,30.79
2023-05-21T14:41:34.282Z,31.48
2023-05-21T14:44:00.970Z,31.55
2023-05-21T14:46:27.682Z,31.67
2023-05-21T14:48:59.263Z,29.88
2023-05-21T14:51:25.842Z,31.03
2023-05-21T14:53:52.360Z,31.50
2023-05-21T14:56:21.682Z,31.61
2023-05-21T14:58:48.322Z,31.72
2023-05-21T15:01:15.064Z,32.43
2023-05-21T15:03:41.845Z,32.19
2023-05-21T15:06:08.636Z,31.82
2023-05-21T15:08:35.585Z,31.67
2023-05-21T15:11:02.190Z,31.87
2023-05-21T15:13:28.737Z,31.34
2023-05-21T15:15:55.554Z,31.78
2023-05-21T15:18:22.329Z,31.82
2023-05-21T15:20:48.855Z,31.77
2023-05-21T15:23:17.831Z,31.64
2023-05-21T15:25:45.409Z,31.81
2023-05-21T15:28:12.515Z,31.50
2023-05-21T15:30:42.129Z,30.94
2023-05-21T15:33:08.898Z,30.75
2023-05-21T15:35:36.632Z,31.54
2023-05-21T15:38:03.543Z,30.96
2023-05-21T15:40:30.383Z,30.01
2023-05-21T15:42:57.764Z,30.59
2023-05-21T15:45:35.351Z,29.93
2023-05-21T15:48:02.459Z,30.55
2023-05-21T15:50:28.996Z,31.04
2023-05-21T15:52:55.571Z,30.42
2023-05-21T15:55:22.153Z,29.39
2023-05-21T15:57:48.667Z,29.87
2023-05-21T16:00:18.588Z,29.86
2023-05-21T16:02:45.403Z,29.95
2023-05-21T16:05:12.123Z,29.93
2023-05-21T16:07:40.846Z,29.35
2023-05-21T16:10:09.724Z,28.99
2023-05-21T16:12:36.283Z,28.44
2023-05-21T16:15:02.823Z,28.23
2023-05-21T16:17:29.371Z,28.09
2023-05-21T16:19:55.889Z,27.96
2023-05-21T16:22:25.288Z,27.59
2023-05-21T16:24:53.292Z,27.61
2023-05-21T16:27:20.031Z,27.54
2023-05-21T16:29:46.688Z,27.52
2023-05-21T16:32:14.057Z,27.05
2023-05-21T16:34:41.317Z,26.95
2023-05-21T16:37:11.213Z,26.67
2023-05-21T16:39:37.941Z,26.86
2023-05-21T16:42:04.637Z,26.95
2023-05-21T16:44:32.069Z,26.87
2023-05-21T16:46:59.601Z,26.70
2023-05-21T16:49:27.196Z,26.91
2023-05-21T16:51:53.754Z,26.69
2023-05-21T16:54:21.039Z,26.70
2023-05-21T16:56:47.621Z,26.74
2023-05-21T16:59:14.189Z,26.57
2023-05-21T17:01:40.990Z,26.67
2023-05-21T17:04:07.812Z,26.26
2023-05-21T17:06:34.877Z,26.25
2023-05-21T17:09:01.926Z,26.04
2023-05-21T17:11:29.259Z,25.73
2023-05-21T17:13:55.782Z,25.58
2023-05-21T17:16:23.073Z,25.30
2023-05-21T17:18:49.615Z,25.29
2023-05-21T17:21:16.424Z,25.23
2023-05-21T17:23:43.054Z,25.18
2023-05-21T17:26:09.759Z,25.00
2023-05-21T17:28:36.648Z,25.08
2023-05-21T17:31:03.560Z,24.98
2023-05-21T17:33:30.183Z,24.93
2023-05-21T17:35:57.040Z,24.72
2023-05-21T17:38:23.595Z,24.32
2023-05-21T17:40:50.654Z,23.79
2023-05-21T17:43:17.765Z,23.56
2023-05-21T17:45:44.267Z,23.21
2023-05-21T17:48:12.025Z,22.73
2023-05-21T17:50:38.657Z,22.63
2023-05-21T17:53:05.398Z,22.44
2023-05-21T17:57:36.492Z,22.02
2023-05-21T18:00:05.081Z,21.57
2023-05-21T18:02:31.672Z,21.13
2023-05-21T18:04:59.212Z,20.55
2023-05-21T18:07:25.732Z,20.08
2023-05-21T18:09:52.207Z,19.85
2023-05-21T18:12:18.670Z,19.71
2023-05-21T18:14:45.794Z,19.63
2023-05-21T18:17:12.323Z,19.16
2023-05-21T18:19:38.755Z,19.12
2023-05-21T18:22:05.326Z,19.04
2023-05-21T18:24:31.841Z,19.18
2023-05-21T18:26:58.398Z,19.14
2023-05-21T18:29:24.867Z,19.05
2023-05-21T18:31:51.491Z,18.98
2023-05-21T18:34:18.003Z,19.01
2023-05-21T18:36:44.592Z,19.08
2023-05-21T18:39:11.024Z,19.16
2023-05-21T18:41:38.644Z,19.25
2023-05-21T18:44:06.115Z,19.35
2023-05-21T18:46:32.733Z,19.35
2023-05-21T18:49:00.174Z,19.47
2023-05-21T18:51:26.613Z,19.45
2023-05-21T18:53:53.190Z,19.46
2023-05-21T18:56:19.831Z,19.45
2023-05-21T18:58:47.492Z,19.46
2023-05-21T19:01:14.104Z,19.45
2023-05-21T19:03:40.687Z,19.42
2023-05-21T19:06:08.255Z,19.45
2023-05-21T19:08:34.680Z,19.47
2023-05-21T19:11:01.189Z,19.50
2023-05-21T19:13:27.752Z,19.60
2023-05-21T19:15:54.331Z,19.53
2023-05-21T19:18:20.866Z,19.47
2023-05-21T19:20:47.320Z,19.53
2023-05-21T19:23:13.787Z,19.57
2023-05-21T19:25:40.433Z,19.70
2023-05-21T19:28:06.866Z,19.73
2023-05-21T19:30:36.277Z,19.66
2023-05-21T19:33:03.392Z,19.67
2023-05-21T19:35:30.149Z,19.73
2023-05-21T19:38:00.205Z,19.70
2023-05-21T19:40:28.309Z,19.69
2023-05-21T19:42:54.846Z,19.59
2023-05-21T19:45:22.647Z,19.63
2023-05-21T19:47:49.207Z,19.53
2023-05-21T19:50:15.807Z,19.59
2023-05-21T19:52:42.640Z,19.50
2023-05-21T19:55:12.390Z,19.60
2023-05-21T19:57:39.695Z,19.59
2023-05-21T20:00:10.158Z,19.59
2023-05-21T20:02:36.663Z,19.52
2023-05-21T20:05:03.186Z,19.53
2023-05-21T20:07:29.681Z,19.55
2023-05-21T20:09:56.100Z,19.55
2023-05-21T20:12:22.539Z,19.62
2023-05-21T20:14:49.520Z,19.66
2023-05-21T20:17:18.813Z,19.77
2023-05-21T20:19:48.658Z,19.84
2023-05-21T20:22:15.859Z,19.85
2023-05-21T20:24:43.584Z,19.87
2023-05-21T20:27:10.268Z,19.80
2023-05-21T20:29:36.794Z,19.77
2023-05-21T20:32:03.376Z,19.93
2023-05-21T20:34:30.064Z,19.80
2023-05-21T20:36:59.224Z,19.83
2023-05-21T20:39:27.682Z,19.84
2023-05-21T20:41:56.976Z,19.80
2023-05-21T20:44:25.809Z,19.70
2023-05-21T20:46:52.545Z,19.66
2023-05-21T20:49:19.061Z,19.52
2023-05-21T20:51:46.570Z,19.49
2023-05-21T20:54:13.053Z,19.49
2023-05-21T20:56:42.586Z,19.43
2023-05-21T20:59:11.075Z,19.45
2023-05-21T21:01:38.397Z,19.43
2023-05-21T21:04:05.414Z,19.35
2023-05-21T21:06:38.173Z,19.36
2023-05-21T21:09:04.695Z,19.36
2023-05-21T21:11:31.440Z,19.28
2023-05-21T21:13:57.848Z,19.34
2023-05-21T21:16:24.330Z,19.31
2023-05-21T21:18:50.939Z,19.25
2023-05-21T21:21:20.718Z,19.26
2023-05-21T21:23:47.140Z,19.25
2023-05-21T21:26:13.589Z,19.18
2023-05-21T21:28:39.998Z,19.18
2023-05-21T21:31:06.480Z,19.12
2023-05-21T21:33:32.986Z,19.19
2023-05-21T21:36:00.449Z,19.14
2023-05-21T21:38:26.930Z,19.15
2023-05-21T21:40:54.379Z,19.15
2023-05-21T21:43:20.993Z,19.06
2023-05-21T21:45:47.772Z,19.14
2023-05-21T21:48:16.550Z,19.09
2023-05-21T21:50:43.003Z,19.11
2023-05-21T21:53:09.966Z,19.05
2023-05-21T21:55:37.717Z,19.04
2023-05-21T21:58:04.147Z,19.06
2023-05-21T22:00:30.743Z,19.02
2023-05-21T22:02:57.265Z,18.97
2023-05-21T22:05:23.767Z,18.89
2023-05-21T22:07:51.314Z,18.88
2023-05-21T22:10:17.851Z,18.84
2023-05-21T22:12:44.764Z,18.73
2023-05-21T22:15:18.313Z,18.70
2023-05-21T22:17:47.281Z,18.68
2023-05-21T22:20:13.921Z,18.66
2023-05-21T22:22:40.641Z,18.60
2023-05-21T22:25:08.905Z,18.58
2023-05-21T22:27:36.322Z,18.64
2023-05-21T22:30:03.670Z,18.58
2023-05-21T22:32:30.195Z,18.50
2023-05-21T22:34:56.771Z,18.48
2023-05-21T22:37:29.208Z,18.53
2023-05-21T22:39:57.334Z,18.50
2023-05-21T22:42:23.988Z,18.39
2023-05-21T22:44:50.637Z,18.39
2023-05-21T22:47:17.139Z,18.34
2023-05-21T22:49:43.611Z,18.32
2023-05-21T22:52:10.652Z,18.27
2023-05-21T22:54:37.231Z,18.36
2023-05-21T22:57:04.033Z,18.33
2023-05-21T22:59:32.591Z,18.30
2023-05-21T23:01:59.338Z,18.37
2023-05-21T23:04:42.812Z,18.33
2023-05-21T23:07:10.740Z,18.26
2023-05-21T23:09:37.426Z,18.22
2023-05-21T23:12:04.297Z,18.25
2023-05-21T23:14:30.753Z,18.23
2023-05-21T23:17:01.623Z,18.19
2023-05-21T23:19:29.440Z,18.16
2023-05-21T23:21:56.314Z,18.13
2023-05-21T23:24:23.033Z,18.12
2023-05-21T23:26:49.810Z,18.04
2023-05-21T23:29:16.421Z,18.05
2023-05-21T23:31:43.592Z,18.05
2023-05-21T23:34:10.171Z,18.05
2023-05-21T23:36:36.691Z,18.01
2023-05-21T23:39:03.746Z,18.01
2023-05-21T23:41:30.337Z,17.92
2023-05-21T23:43:56.821Z,17.99
2023-05-21T23:46:23.370Z,18.02
2023-05-21T23:48:49.929Z,17.94
2023-05-21T23:51:18.251Z,17.91
2023-05-21T23:53:45.118Z,18.01
2023-05-21T23:56:11.580Z,17.92
